Time;durP1;ratioP1;P1;durP2;ratioP2;P2;SDS_P1;SDS_P2;PMS_P1;PMS_P2;Temp;Humidity;BMP_temperature;BMP_pressure;BME280_temperature;BME280_humidity;BME280_pressure;Samples;Min_cycle;Max_cycle;Signal;HPM_P1;HPM_P2
2022/02/25 00:02:22;;;;;;;2.73;0.70;;;;;;;;;;5073810;28;20431;-76
2022/02/25 00:04:48;;;;;;;0.83;0.83;;;;;;;;;;5072825;28;20413;-76
2022/02/25 00:07:14;;;;;;;1.87;0.63;;;4.40;1.00;;;;;;5072334;28;20448;-76
2022/02/25 00:09:39;;;;;;;2.30;0.70;;;4.40;1.00;;;;;;5073281;28;20897;-77
2022/02/25 00:12:05;;;;;;;0.80;0.63;;;4.30;1.00;;;;;;5072307;28;20190;-76
2022/02/25 00:14:31;;;;;;;0.80;0.80;;;;;;;;;;5072991;28;20296;-76
2022/02/25 00:16:57;;;;;;;1.00;1.00;;;;;;;;;;5071806;28;20453;-76
2022/02/25 00:19:23;;;;;;;0.80;0.60;;;;;;;;;;5073155;28;20397;-76
2022/02/25 00:21:50;;;;;;;0.87;0.77;;;;;;;;;;5072684;28;20421;-76
2022/02/25 00:24:16;;;;;;;0.75;0.75;;;;;;;;;;5073094;28;20476;-76
2022/02/25 00:26:42;;;;;;;1.13;0.80;;;;;;;;;;5073046;28;20205;-76
2022/02/25 00:29:08;;;;;;;1.20;0.80;;;;;;;;;;5072729;28;20750;-76
2022/02/25 00:31:34;;;;;;;0.70;0.70;;;;;;;;;;5072953;28;20491;-76
2022/02/25 00:34:00;;;;;;;1.88;1.02;;;;;;;;;;5072838;28;20393;-77
2022/02/25 00:36:26;;;;;;;3.73;1.40;;;;;;;;;;5072592;28;20561;-76
2022/02/25 00:38:52;;;;;;;1.43;1.10;;;4.10;1.00;;;;;;5072557;28;20444;-76
2022/02/25 00:41:18;;;;;;;1.63;1.10;;;;;;;;;;5072266;28;20775;-76
2022/02/25 00:43:44;;;;;;;1.47;1.10;;;4.00;1.00;;;;;;5052926;28;20391;-76
2022/02/25 00:46:10;;;;;;;1.63;0.70;;;4.00;1.00;;;;;;5072628;28;20409;-76
2022/02/25 00:48:35;;;;;;;3.40;0.83;;;3.90;1.00;;;;;;5073061;28;20240;-75
2022/02/25 00:51:05;;;;;;;0.87;0.87;;;3.90;1.00;;;;;;5072106;28;20249;-76
2022/02/25 00:53:31;;;;;;;2.30;0.80;;;3.90;1.00;;;;;;5072510;28;20158;-76
2022/02/25 00:55:56;;;;;;;4.10;0.90;;;3.90;1.00;;;;;;5068723;28;20935;-76
2022/02/25 00:58:23;;;;;;;2.77;0.90;;;3.80;1.00;;;;;;5072713;28;20647;-76
2022/02/25 01:00:49;;;;;;;1.90;0.93;;;;;;;;;;5072435;28;20246;-76
2022/02/25 01:03:15;;;;;;;1.93;0.90;;;;;;;;;;5072784;28;20221;-76
2022/02/25 01:05:40;;;;;;;1.27;0.97;;;3.60;1.00;;;;;;5072597;28;20881;-76
2022/02/25 01:08:07;;;;;;;3.37;1.10;;;3.60;1.00;;;;;;5072548;28;20451;-76
2022/02/25 01:10:35;;;;;;;3.78;1.08;;;3.50;1.00;;;;;;5072280;28;20573;-76
2022/02/25 01:13:01;;;;;;;2.75;1.17;;;;;;;;;;5072221;28;20244;-76
2022/02/25 01:15:27;;;;;;;4.20;1.00;;;3.40;1.00;;;;;;5071333;28;20166;-76
2022/02/25 01:17:53;;;;;;;1.13;1.03;;;3.30;1.00;;;;;;5072807;28;20191;-76
2022/02/25 01:20:18;;;;;;;2.60;1.40;;;3.40;1.00;;;;;;5073917;28;20193;-76
2022/02/25 01:22:45;;;;;;;1.47;1.20;;;3.20;1.00;;;;;;5076129;28;20172;-76
2022/02/25 01:25:11;;;;;;;1.20;1.20;;;3.30;1.00;;;;;;5074703;28;20225;-76
2022/02/25 01:27:37;;;;;;;2.75;1.10;;;3.30;1.00;;;;;;5076545;28;20246;-76
2022/02/25 01:30:05;;;;;;;6.73;1.27;;;3.20;1.00;;;;;;5075757;28;20592;-76
2022/02/25 01:32:30;;;;;;;1.00;1.00;;;3.10;1.00;;;;;;5076087;28;20171;-75
2022/02/25 01:34:57;;;;;;;6.47;1.10;;;3.10;1.00;;;;;;5075967;28;20190;-76
2022/02/25 01:37:22;;;;;;;2.40;1.10;;;3.10;1.00;;;;;;5075869;28;20604;-76
2022/02/25 01:39:48;;;;;;;0.83;0.83;;;;;;;;;;5075736;28;20206;-76
2022/02/25 01:42:14;;;;;;;1.10;1.10;;;;;;;;;;5075596;28;20201;-76
2022/02/25 01:44:41;;;;;;;2.13;1.40;;;3.00;1.00;;;;;;5073994;28;20413;-76
2022/02/25 01:47:08;;;;;;;1.98;1.30;;;2.90;1.00;;;;;;5075972;28;20479;-76
2022/02/25 01:49:34;;;;;;;1.60;1.00;;;;;;;;;;5075644;28;20202;-76
2022/02/25 01:52:05;;;;;;;1.10;1.00;;;2.80;1.00;;;;;;5075914;28;20565;-76
2022/02/25 01:54:31;;;;;;;2.55;1.15;;;2.80;1.00;;;;;;5073563;28;20519;-76
2022/02/25 01:57:00;;;;;;;5.82;1.30;;;2.80;1.00;;;;;;5061121;28;20263;-76
2022/02/25 01:59:28;;;;;;;2.50;0.90;;;2.80;1.00;;;;;;5073170;28;20167;-76
2022/02/25 02:01:59;;;;;;;3.55;1.17;;;;;;;;;;5075278;28;20194;-76
2022/02/25 02:04:26;;;;;;;1.90;0.90;;;2.90;1.00;;;;;;5075841;28;20163;-76
2022/02/25 02:06:52;;;;;;;1.20;0.95;;;2.80;1.00;;;;;;5075328;28;20160;-76
2022/02/25 02:09:18;;;;;;;7.05;1.27;;;2.80;1.00;;;;;;5075213;28;20520;-76
2022/02/25 02:11:47;;;;;;;3.43;0.70;;;2.70;1.00;;;;;;5075453;28;20160;-76
2022/02/25 02:14:16;;;;;;;1.60;1.30;;;2.70;1.00;;;;;;5074816;28;20221;-76
2022/02/25 02:16:46;;;;;;;1.10;1.00;;;2.70;1.00;;;;;;5075162;28;20601;-76
2022/02/25 02:19:12;;;;;;;3.47;1.15;;;2.70;1.00;;;;;;5074770;28;20173;-76
2022/02/25 02:21:44;;;;;;;1.67;0.82;;;2.70;1.00;;;;;;5074094;28;20224;-76
2022/02/25 02:24:10;;;;;;;1.98;0.80;;;;;;;;;;5074754;28;20232;-76
2022/02/25 02:26:37;;;;;;;4.40;1.20;;;2.70;1.00;;;;;;5075155;28;20163;-76
2022/02/25 02:29:07;;;;;;;1.40;1.30;;;2.70;1.00;;;;;;5075092;28;20171;-76
2022/02/25 02:31:32;;;;;;;4.53;1.08;;;2.60;1.00;;;;;;5074511;28;20182;-76
2022/02/25 02:33:59;;;;;;;1.10;1.00;;;2.60;1.00;;;;;;5075207;28;20564;-76
2022/02/25 02:36:25;;;;;;;4.50;1.00;;;2.70;1.00;;;;;;5074593;28;20182;-76
2022/02/25 02:38:50;;;;;;;0.80;0.80;;;2.60;1.00;;;;;;5074613;28;20186;-76
2022/02/25 02:41:17;;;;;;;3.60;1.00;;;2.60;1.00;;;;;;5074688;28;20414;-76
2022/02/25 02:43:42;;;;;;;2.60;1.20;;;2.60;1.00;;;;;;5074495;28;20198;-76
2022/02/25 02:46:09;;;;;;;4.40;1.00;;;2.60;1.00;;;;;;5074124;28;20619;-76
2022/02/25 02:48:35;;;;;;;1.15;1.15;;;2.60;1.00;;;;;;5075165;28;20195;-76
2022/02/25 02:51:01;;;;;;;2.95;0.80;;;2.60;1.00;;;;;;5074472;28;20175;-77
2022/02/25 02:53:26;;;;;;;2.40;0.80;;;2.60;1.00;;;;;;5074358;28;20258;-77
2022/02/25 02:55:52;;;;;;;2.87;1.30;;;2.60;1.00;;;;;;5068898;28;20517;-77
2022/02/25 02:58:18;;;;;;;0.77;0.73;;;;;;;;;;5069886;28;20198;-77
2022/02/25 03:00:47;;;;;;;2.20;1.00;;;2.50;1.00;;;;;;5074183;28;20838;-76
2022/02/25 03:03:13;;;;;;;0.90;0.90;;;;;;;;;;5074461;28;20179;-76
2022/02/25 03:05:40;;;;;;;0.93;0.93;;;2.50;1.00;;;;;;5074338;28;20532;-76
2022/02/25 03:08:06;;;;;;;5.57;0.88;;;;;;;;;;5074468;28;20562;-76
2022/02/25 03:10:33;;;;;;;4.00;0.80;;;2.40;1.00;;;;;;5073995;28;20167;-76
2022/02/25 03:13:06;;;;;;;1.00;0.85;;;2.40;1.00;;;;;;5073853;28;20174;-76
2022/02/25 03:15:32;;;;;;;4.43;2.08;;;2.40;1.00;;;;;;5072715;28;20167;-76
2022/02/25 03:17:58;;;;;;;1.85;1.05;;;2.40;1.00;;;;;;5074539;28;20605;-75
2022/02/25 03:20:24;;;;;;;6.10;1.13;;;2.40;1.00;;;;;;5074161;28;20239;-75
2022/02/25 03:22:51;;;;;;;4.82;0.90;;;2.30;1.00;;;;;;5073381;28;20167;-76
2022/02/25 03:25:18;;;;;;;2.75;0.77;;;2.30;1.00;;;;;;5073872;28;20175;-76
2022/02/25 03:27:44;;;;;;;2.45;0.90;;;;;;;;;;5073877;28;20218;-76
2022/02/25 03:30:10;;;;;;;1.13;0.80;;;2.30;1.00;;;;;;5073565;28;20159;-76
2022/02/25 03:32:36;;;;;;;2.97;0.80;;;2.30;1.00;;;;;;5073664;28;20205;-76
2022/02/25 03:35:02;;;;;;;1.23;0.80;;;2.20;1.00;;;;;;5074045;28;20167;-76
2022/02/25 03:37:29;;;;;;;1.75;0.95;;;2.20;1.00;;;;;;5072334;28;20560;-76
2022/02/25 03:39:56;;;;;;;1.52;0.90;;;2.20;1.00;;;;;;5073411;28;20694;-76
2022/02/25 03:42:21;;;;;;;1.73;1.00;;;2.20;1.00;;;;;;5071409;28;20203;-76
2022/02/25 03:44:47;;;;;;;3.07;0.80;;;2.10;1.00;;;;;;5071644;28;20202;-76
2022/02/25 03:47:13;;;;;;;10.83;1.30;;;;;;;;;;5073247;28;20529;-76
2022/02/25 03:49:39;;;;;;;5.13;1.20;;;;;;;;;;5073860;28;20393;-76
2022/02/25 03:52:06;;;;;;;1.55;0.80;;;2.00;1.00;;;;;;5073304;28;20490;-77
2022/02/25 03:54:32;;;;;;;1.50;0.85;;;2.10;1.00;;;;;;5073210;28;20579;-77
2022/02/25 03:56:58;;;;;;;0.90;0.90;;;;;;;;;;5058456;28;20187;-77
2022/02/25 03:59:23;;;;;;;1.17;0.90;;;2.00;1.00;;;;;;5053465;28;20199;-77
2022/02/25 04:01:52;;;;;;;2.27;0.87;;;2.00;1.00;;;;;;5067973;28;20775;-77
2022/02/25 04:04:22;;;;;;;0.70;0.70;;;2.00;1.00;;;;;;5073382;28;20167;-75
2022/02/25 04:06:53;;;;;;;2.25;0.90;;;2.00;1.00;;;;;;5073099;28;20207;-75
2022/02/25 04:09:19;;;;;;;2.08;0.80;;;2.00;1.00;;;;;;5072010;28;20166;-75
2022/02/25 04:11:46;;;;;;;3.55;0.70;;;2.00;1.00;;;;;;5072393;28;20528;-76
2022/02/25 04:14:14;;;;;;;1.90;0.90;;;2.00;1.00;;;;;;5072909;28;20586;-76
2022/02/25 04:16:40;;;;;;;1.88;0.75;;;1.90;1.00;;;;;;5073216;28;20615;-76
2022/02/25 04:19:06;;;;;;;2.15;0.90;;;2.00;1.00;;;;;;5071806;28;20191;-76
2022/02/25 04:21:32;;;;;;;5.05;0.90;;;1.90;1.00;;;;;;5072978;28;20167;-76
2022/02/25 04:23:58;;;;;;;0.70;0.70;;;;;;;;;;5071516;28;20175;-76
2022/02/25 04:26:24;;;;;;;1.92;0.93;;;1.80;1.00;;;;;;5071543;28;20174;-76
2022/02/25 04:28:50;;;;;;;0.70;0.70;;;1.90;1.00;;;;;;5073031;28;20179;-76
2022/02/25 04:31:16;;;;;;;5.47;1.03;;;;;;;;;;5073558;28;20238;-76
2022/02/25 04:33:42;;;;;;;4.05;0.95;;;;;;;;;;5072891;28;20398;-76
2022/02/25 04:36:08;;;;;;;1.57;0.90;;;;;;;;;;5071586;28;20345;-76
2022/02/25 04:38:34;;;;;;;3.50;1.10;;;;;;;;;;5071165;28;20453;-76
2022/02/25 04:41:01;;;;;;;6.10;1.13;;;1.90;1.00;;;;;;5072888;28;20405;-76
2022/02/25 04:43:31;;;;;;;4.03;0.80;;;1.90;1.00;;;;;;5072882;28;20152;-76
2022/02/25 04:45:58;;;;;;;3.08;1.08;;;1.90;1.00;;;;;;5072005;28;20167;-76
2022/02/25 04:48:25;;;;;;;2.80;1.20;;;1.90;1.00;;;;;;5071763;28;20222;-76
2022/02/25 04:50:50;;;;;;;3.40;0.80;;;1.90;1.00;;;;;;5073183;28;20205;-76
2022/02/25 04:53:16;;;;;;;4.03;1.30;;;1.90;1.00;;;;;;5073552;28;20198;-76
2022/02/25 04:55:46;;;;;;;2.10;0.93;;;1.90;1.00;;;;;;5072327;28;20183;-77
2022/02/25 04:58:20;;;;;;;1.85;1.15;;;1.90;1.00;;;;;;5056873;28;20175;-77
2022/02/25 05:00:46;;;;;;;1.88;0.70;;;1.90;1.00;;;;;;5074627;28;20205;-77
2022/02/25 05:03:17;;;;;;;4.60;1.30;;;1.90;1.00;;;;;;5076817;28;20195;-77
2022/02/25 05:05:43;;;;;;;4.82;1.10;;;1.80;1.00;;;;;;5075484;28;20183;-76
2022/02/25 05:08:09;;;;;;;3.10;1.43;;;1.80;1.00;;;;;;5076682;28;20217;-76
2022/02/25 05:10:34;;;;;;;4.13;1.63;;;1.80;1.00;;;;;;5076148;28;20748;-76
2022/02/25 05:13:00;;;;;;;2.60;1.10;;;1.80;1.00;;;;;;5076645;28;20730;-76
2022/02/25 05:20:53;;;;;;;4.32;1.10;;;1.80;1.00;;;;;;5076618;28;20543;-76
2022/02/25 05:23:20;;;;;;;3.77;1.73;;;1.80;1.00;;;;;;5076047;28;20164;-76
2022/02/25 05:25:46;;;;;;;2.08;0.88;;;1.80;1.00;;;;;;5076104;28;20171;-76
2022/02/25 05:28:12;;;;;;;4.15;0.88;;;1.80;1.00;;;;;;5076351;28;20602;-76
2022/02/25 05:30:40;;;;;;;2.70;1.00;;;1.80;1.00;;;;;;5075813;28;20205;-76
2022/02/25 05:33:05;;;;;;;5.65;0.95;;;1.80;1.00;;;;;;5076352;28;20152;-77
2022/02/25 05:35:31;;;;;;;6.20;1.10;;;1.80;1.00;;;;;;5075694;28;20535;-76
2022/02/25 05:37:57;;;;;;;4.43;1.10;;;;;;;;;;5076181;28;20445;-76
2022/02/25 05:40:23;;;;;;;2.10;0.97;;;1.80;1.00;;;;;;5075612;28;20642;-76
2022/02/25 05:42:49;;;;;;;3.27;1.17;;;1.80;1.00;;;;;;5075766;28;20415;-76
2022/02/25 05:45:16;;;;;;;6.13;1.90;;;1.70;1.00;;;;;;5075294;28;20250;-76
2022/02/25 05:47:42;;;;;;;6.07;1.20;;;;;;;;;;5074409;28;20448;-76
2022/02/25 05:50:14;;;;;;;4.07;1.45;;;1.80;1.00;;;;;;5076123;28;20159;-75
2022/02/25 05:52:41;;;;;;;6.97;1.25;;;1.80;1.00;;;;;;5075585;28;20536;-76
2022/02/25 05:55:07;;;;;;;3.17;1.27;;;1.80;1.00;;;;;;5075620;28;20159;-76
2022/02/25 05:57:33;;;;;;;5.40;1.33;;;1.80;1.00;;;;;;5061400;28;20361;-76
2022/02/25 05:59:59;;;;;;;4.17;1.10;;;1.70;1.00;;;;;;5074289;28;20271;-76
2022/02/25 06:02:25;;;;;;;3.05;1.20;;;1.70;1.00;;;;;;5074803;28;20244;-77
2022/02/25 06:04:51;;;;;;;2.75;1.33;;;1.70;1.00;;;;;;5075451;28;20195;-75
2022/02/25 06:07:18;;;;;;;1.80;1.10;;;1.70;1.00;;;;;;5074133;28;20619;-76
2022/02/25 06:09:45;;;;;;;3.45;1.10;;;1.70;1.00;;;;;;5075569;28;20164;-76
2022/02/25 06:12:11;;;;;;;2.60;1.40;;;1.70;1.00;;;;;;5075448;28;20163;-77
2022/02/25 06:14:37;;;;;;;1.80;1.30;;;1.70;1.00;;;;;;5075641;28;20167;-76
2022/02/25 06:17:03;;;;;;;1.80;1.10;;;1.80;1.00;;;;;;5075209;28;20500;-73
2022/02/25 06:19:29;;;;;;;8.17;1.27;;;1.70;1.00;;;;;;5075619;28;20160;-74
2022/02/25 06:21:54;;;;;;;3.50;1.37;;;1.80;1.00;;;;;;5074777;28;20167;-73
2022/02/25 06:24:20;;;;;;;3.40;1.20;;;;;;;;;;5074531;28;20217;-80
2022/02/25 06:26:46;;;;;;;4.87;1.50;;;1.90;1.00;;;;;;5074967;28;20159;-77
2022/02/25 06:29:12;;;;;;;1.83;0.93;;;;;;;;;;5074842;28;20913;-75
2022/02/25 06:31:38;;;;;;;5.32;1.13;;;1.90;1.00;;;;;;5074579;28;20182;-75
2022/02/25 06:34:04;;;;;;;1.87;1.20;;;1.90;1.00;;;;;;5074348;28;20183;-76
2022/02/25 06:36:30;;;;;;;3.15;1.23;;;1.90;1.00;;;;;;5075310;28;20242;-77
2022/02/25 06:38:56;;;;;;;6.35;1.65;;;1.90;1.00;;;;;;5072332;28;20226;-79
2022/02/25 06:41:23;;;;;;;6.33;1.50;;;1.90;1.00;;;;;;5074957;28;20163;-78
2022/02/25 06:43:49;;;;;;;4.95;1.15;;;;;;;;;;5073121;28;20556;-77
2022/02/25 06:46:15;;;;;;;5.45;1.10;;;2.00;1.00;;;;;;5073966;28;20178;-77
2022/02/25 06:48:41;;;;;;;3.30;1.27;;;2.00;1.00;;;;;;5075469;28;20212;-76
2022/02/25 06:51:11;;;;;;;3.90;1.40;;;2.00;1.00;;;;;;5075979;28;20186;-76
2022/02/25 06:53:42;;;;;;;3.45;1.25;;;2.00;1.00;;;;;;5075170;28;20262;-76
2022/02/25 06:56:29;;;;;;;1.75;1.20;;;2.00;1.00;;;;;;5075611;28;20636;-77
2022/02/25 06:58:55;;;;;;;5.75;1.30;;;2.00;1.00;;;;;;5075120;28;20238;-76
2022/02/25 07:01:23;;;;;;;13.53;1.67;;;2.00;1.00;;;;;;5075123;28;20198;-77
2022/02/25 07:03:53;;;;;;;11.50;1.83;;;2.10;1.00;;;;;;5073829;28;20177;-76
2022/02/25 07:06:24;;;;;;;9.77;1.60;;;2.10;1.00;;;;;;5075156;28;20168;-76
2022/02/25 07:08:51;;;;;;;5.05;1.73;;;2.10;1.00;;;;;;5073584;28;20216;-76
2022/02/25 07:11:29;;;;;;;3.38;1.58;;;2.10;1.00;;;;;;5075452;28;20610;-77
2022/02/25 07:13:59;;;;;;;10.63;1.70;;;2.20;1.00;;;;;;5074189;28;20175;-76
2022/02/25 07:16:25;;;;;;;4.85;1.60;;;2.30;1.00;;;;;;5073931;28;20551;-77
2022/02/25 07:18:51;;;;;;;3.90;1.37;;;2.30;1.00;;;;;;5062384;28;20203;-76
2022/02/25 07:21:35;;;;;;;7.23;1.70;;;2.40;1.00;;;;;;5063368;28;20180;-76
2022/02/25 07:24:03;;;;;;;6.10;1.45;;;2.40;1.00;;;;;;5073568;28;20206;-76
2022/02/25 07:26:29;;;;;;;2.28;1.48;;;2.50;1.00;;;;;;5074471;28;20662;-76
2022/02/25 07:29:05;;;;;;;2.63;1.27;;;2.60;1.00;;;;;;5074600;28;20181;-76
2022/02/25 07:31:53;;;;;;;8.43;1.50;;;2.60;1.00;;;;;;5074292;28;20174;-76
2022/02/25 07:34:29;;;;;;;4.13;1.50;;;2.70;1.00;;;;;;5074348;28;20171;-76
2022/02/25 07:37:23;;;;;;;6.05;1.95;;;2.70;1.00;;;;;;5062039;28;20179;-76
2022/02/25 07:40:24;;;;;;;8.52;1.65;;;2.90;1.00;;;;;;5074251;28;20162;-77
2022/02/25 07:42:59;;;;;;;9.38;2.30;;;2.90;1.00;;;;;;5074351;28;20307;-76
2022/02/25 07:45:29;;;;;;;11.77;1.65;;;3.00;1.00;;;;;;5074495;28;20171;-77
2022/02/25 07:47:55;;;;;;;3.78;1.73;;;3.00;1.00;;;;;;5074674;28;20198;-76
2022/02/25 07:50:23;;;;;;;4.50;2.07;;;3.20;1.00;;;;;;5074273;28;20163;-76
2022/02/25 07:52:53;;;;;;;3.70;1.83;;;3.20;1.00;;;;;;5073418;28;20183;-77
2022/02/25 07:55:30;;;;;;;5.80;1.95;;;3.40;1.00;;;;;;5055595;28;20162;-77
2022/02/25 07:58:05;;;;;;;6.53;2.03;;;3.30;1.00;;;;;;5073804;28;20199;-77
2022/02/25 08:00:47;;;;;;;3.20;1.75;;;3.40;1.00;;;;;;5072834;28;20167;-78
2022/02/25 08:03:17;;;;;;;6.10;2.10;;;3.50;1.00;;;;;;5074237;28;20551;-77
2022/02/25 08:05:54;;;;;;;6.88;1.83;;;3.60;1.00;;;;;;5074529;28;20164;-75
2022/02/25 08:08:20;;;;;;;2.85;1.35;;;3.70;1.00;;;;;;5074086;28;20167;-75
2022/02/25 08:11:05;;;;;;;5.18;1.88;;;3.70;1.00;;;;;;5074211;28;20521;-75
2022/02/25 08:13:36;;;;;;;7.05;1.70;;;3.70;1.00;;;;;;5074042;28;20174;-75
2022/02/25 08:16:02;;;;;;;3.65;1.88;;;3.80;1.00;;;;;;5074101;28;20197;-75
2022/02/25 08:18:35;;;;;;;9.43;1.70;;;4.10;1.00;;;;;;5067552;28;20294;-75
2022/02/25 08:21:01;;;;;;;3.00;1.60;;;4.20;1.00;;;;;;5069099;28;20905;-75
2022/02/25 08:23:35;;;;;;;4.17;1.47;;;4.20;1.00;;;;;;5073821;28;20182;-75
2022/02/25 08:26:17;;;;;;;9.32;1.85;;;4.20;1.00;;;;;;5073531;28;20413;-77
2022/02/25 08:28:47;;;;;;;6.40;3.03;;;4.30;1.00;;;;;;5073738;28;20163;-75
2022/02/25 08:31:18;;;;;;;14.40;2.10;;;4.30;1.00;;;;;;5073976;28;20160;-74
2022/02/25 08:33:44;;;;;;;5.73;2.17;;;4.40;1.00;;;;;;5073306;28;20440;-74
2022/02/25 08:36:09;;;;;;;2.80;1.90;;;4.40;1.00;;;;;;5074375;28;20428;-75
2022/02/25 08:38:35;;;;;;;13.53;2.63;;;4.50;1.00;;;;;;5056234;28;20218;-77
2022/02/25 08:41:05;;;;;;;7.07;1.37;;;4.50;1.00;;;;;;5053079;28;20195;-75
2022/02/25 08:43:31;;;;;;;5.60;1.80;;;4.60;1.00;;;;;;5053454;28;20386;-75
2022/02/25 08:45:57;;;;;;;2.10;1.37;;;4.70;1.00;;;;;;5051202;28;20429;-75
2022/02/25 08:48:24;;;;;;;2.53;1.33;;;4.70;1.00;;;;;;5052891;28;20222;-75
2022/02/25 08:50:54;;;;;;;2.00;1.70;;;4.80;1.00;;;;;;5052635;28;20438;-75
2022/02/25 08:53:20;;;;;;;7.50;1.47;;;4.80;1.00;;;;;;5061586;28;20410;-75
2022/02/25 08:55:46;;;;;;;1.70;1.20;;;4.80;1.00;;;;;;5062752;28;20414;-78
2022/02/25 08:58:12;;;;;;;10.50;1.40;;;4.80;1.00;;;;;;5052056;28;20445;-75
2022/02/25 09:00:41;;;;;;;12.83;1.93;;;4.80;1.00;;;;;;5052192;28;20476;-75
2022/02/25 09:03:07;;;;;;;12.63;2.40;;;4.80;1.00;;;;;;5052330;28;20164;-75
2022/02/25 09:05:32;;;;;;;2.57;1.50;;;4.90;1.00;;;;;;5052617;28;20464;-75
2022/02/25 09:07:58;;;;;;;7.30;2.37;;;5.10;1.00;;;;;;5050154;28;20264;-76
2022/02/25 09:10:25;;;;;;;10.93;1.77;;;5.30;1.00;;;;;;5051927;28;20704;-77
2022/02/25 09:12:51;;;;;;;1.43;1.23;;;5.30;1.00;;;;;;5052439;28;20168;-77
2022/02/25 09:15:24;;;;;;;1.53;0.63;;;5.60;1.00;;;;;;5050691;28;20418;-77
2022/02/25 09:17:52;;;;;;;8.33;1.30;;;5.60;1.00;;;;;;5050837;28;20812;-77
2022/02/25 09:20:19;;;;;;;1.40;1.13;;;5.70;1.00;;;;;;5052180;28;20906;-77
2022/02/25 09:22:44;;;;;;;3.30;1.33;;;7.20;1.00;;;;;;5052552;28;20395;-75
2022/02/25 09:25:10;;;;;;;3.33;1.00;;;6.20;1.00;;;;;;5052371;28;20397;-76
2022/02/25 09:27:37;;;;;;;9.30;1.80;;;6.10;1.00;;;;;;5052232;28;20689;-76
2022/02/25 09:30:04;;;;;;;5.30;1.20;;;6.30;1.00;;;;;;5059196;28;20171;-76
2022/02/25 09:32:30;;;;;;;4.83;1.70;;;6.40;1.00;;;;;;5057053;28;20422;-76
2022/02/25 09:34:55;;;;;;;3.23;1.57;;;6.40;1.00;;;;;;5051742;28;20422;-76
2022/02/25 09:37:24;;;;;;;2.67;1.70;;;7.50;1.00;;;;;;5051644;28;20204;-80
2022/02/25 09:39:50;;;;;;;12.87;1.83;;;6.40;1.00;;;;;;5052836;28;20211;-75
2022/02/25 09:42:21;;;;;;;4.07;1.47;;;6.40;1.00;;;;;;5056604;28;20405;-75
2022/02/25 09:44:59;;;;;;;7.83;1.70;;;6.30;1.00;;;;;;5050853;28;20890;-75
2022/02/25 09:47:27;;;;;;;4.80;1.40;;;6.30;1.00;;;;;;5055798;28;20543;-75
2022/02/25 09:49:53;;;;;;;4.93;1.50;;;6.30;1.00;;;;;;5056409;28;20398;-76
2022/02/25 09:52:42;;;;;;;3.80;1.60;;;6.30;1.00;;;;;;5057128;28;20762;-77
2022/02/25 09:55:17;;;;;;;5.17;1.23;;;6.40;1.00;;;;;;5056626;28;20393;-78
2022/02/25 09:57:54;;;;;;;7.33;1.93;;;6.40;1.00;;;;;;5056755;28;20445;-77
2022/02/25 10:00:23;;;;;;;5.07;1.70;;;6.30;1.00;;;;;;5056524;28;20394;-78
2022/02/25 10:02:53;;;;;;;5.57;1.70;;;6.30;1.00;;;;;;5055850;28;20402;-77
2022/02/25 10:05:24;;;;;;;13.13;1.90;;;6.70;1.00;;;;;;5056301;28;20871;-77
2022/02/25 10:08:17;;;;;;;5.77;1.33;;;6.70;1.00;;;;;;5056312;28;20429;-76
2022/02/25 10:10:47;;;;;;;2.63;1.20;;;6.90;1.00;;;;;;5056360;28;20895;-76
2022/02/25 10:13:20;;;;;;;10.20;1.50;;;6.90;1.00;;;;;;5056145;28;20402;-76
2022/02/25 10:15:48;;;;;;;2.63;0.90;;;6.80;1.00;;;;;;5056256;28;20383;-76
2022/02/25 10:18:27;;;;;;;6.30;1.43;;;6.80;1.00;;;;;;5055943;28;21091;-75
2022/02/25 10:21:09;;;;;;;8.50;1.47;;;6.80;1.00;;;;;;5056240;28;20422;-76
2022/02/25 10:24:06;;;;;;;8.13;1.70;;;6.70;1.00;;;;;;5056068;28;20402;-77
2022/02/25 10:26:36;;;;;;;2.60;1.67;;;6.70;1.00;;;;;;5056225;28;20417;-77
2022/02/25 10:33:05;;;;;;;6.50;1.43;;;7.20;1.00;;;;;;5052722;28;20457;-81
2022/02/25 10:35:38;;;;;;;7.17;1.93;;;7.10;1.00;;;;;;5054368;28;20453;-80
2022/02/25 10:38:47;;;;;;;4.93;1.63;;;7.20;1.00;;;;;;5054176;28;20453;-80
2022/02/25 10:41:21;;;;;;;3.10;1.40;;;7.20;1.00;;;;;;5048714;28;20481;-77
2022/02/25 10:43:47;;;;;;;2.03;1.50;;;7.20;1.00;;;;;;5055735;28;20386;-77
2022/02/25 10:46:13;;;;;;;5.77;1.70;;;7.20;1.00;;;;;;5055213;28;20962;-76
2022/02/25 10:48:48;;;;;;;7.63;2.00;;;7.20;1.00;;;;;;5055049;28;20906;-76
2022/02/25 10:51:21;;;;;;;4.40;1.13;;;6.90;1.00;;;;;;5053214;28;20421;-75
2022/02/25 10:53:50;;;;;;;1.40;1.20;;;6.80;1.00;;;;;;5080181;28;20478;-77
2022/02/25 10:56:21;;;;;;;1.47;1.03;;;6.80;1.00;;;;;;5054729;28;20402;-76
2022/02/25 10:58:56;;;;;;;5.00;1.40;;;6.80;1.00;;;;;;5048411;28;20476;-77
2022/02/25 11:01:43;;;;;;;3.27;1.53;;;6.80;1.00;;;;;;5055598;28;20773;-77
2022/02/25 11:04:12;;;;;;;6.00;1.77;;;6.80;1.00;;;;;;5053725;28;20418;-76
2022/02/25 11:06:38;;;;;;;5.63;1.20;;;6.70;1.00;;;;;;5054709;28;20418;-78
2022/02/25 11:09:12;;;;;;;5.90;1.50;;;6.70;1.00;;;;;;5055582;28;20395;-77
2022/02/25 11:12:01;;;;;;;8.23;1.33;;;6.70;1.00;;;;;;5055091;28;20414;-77
2022/02/25 11:14:30;;;;;;;6.73;1.40;;;6.70;1.00;;;;;;5053123;28;20520;-76
2022/02/25 11:16:57;;;;;;;5.93;1.50;;;6.80;1.00;;;;;;5055083;28;20442;-76
2022/02/25 11:19:26;;;;;;;2.67;1.13;;;6.90;1.00;;;;;;5055144;28;20442;-76
2022/02/25 11:22:18;;;;;;;1.33;1.10;;;6.90;1.00;;;;;;5053865;28;20461;-77
2022/02/25 11:24:49;;;;;;;9.93;1.63;;;6.80;1.00;;;;;;5055195;28;20395;-77
2022/02/25 11:27:42;;;;;;;15.20;1.60;;;6.70;1.00;;;;;;5054798;28;20390;-77
2022/02/25 11:30:29;;;;;;;4.40;1.23;;;6.60;1.00;;;;;;5054680;28;20393;-77
2022/02/25 11:32:58;;;;;;;8.73;1.63;;;6.70;1.00;;;;;;5051383;28;20438;-77
2022/02/25 11:35:47;;;;;;;2.13;1.60;;;6.70;1.00;;;;;;5053739;28;20482;-77
2022/02/25 11:38:26;;;;;;;3.13;1.30;;;6.60;1.00;;;;;;5053795;28;20460;-77
2022/02/25 11:41:06;;;;;;;7.63;2.13;;;6.60;1.00;;;;;;5053278;28;20386;-77
2022/02/25 11:43:47;;;;;;;1.87;0.80;;;6.50;1.00;;;;;;5053024;28;20414;-76
2022/02/25 11:46:23;;;;;;;3.30;1.70;;;6.50;1.00;;;;;;5052258;28;20417;-76
2022/02/25 11:48:52;;;;;;;1.70;0.70;;;6.50;1.00;;;;;;5052097;28;20442;-77
2022/02/25 11:51:39;;;;;;;8.10;1.50;;;6.30;1.00;;;;;;5049137;28;20433;-77
2022/02/25 11:54:26;;;;;;;2.60;1.00;;;6.30;1.00;;;;;;5053234;28;20414;-76
2022/02/25 11:57:04;;;;;;;2.60;1.00;;;6.20;1.00;;;;;;5052973;28;20918;-76
2022/02/25 11:59:32;;;;;;;3.17;1.23;;;6.20;1.00;;;;;;5050656;28;20516;-76
2022/02/25 12:02:14;;;;;;;8.40;1.80;;;6.20;1.00;;;;;;5050256;28;20512;-76
2022/02/25 12:04:44;;;;;;;1.20;0.90;;;6.10;1.00;;;;;;5052410;28;20420;-76
2022/02/25 12:07:11;;;;;;;6.00;0.90;;;6.10;1.00;;;;;;5052025;28;20961;-76
2022/02/25 12:09:50;;;;;;;3.80;1.13;;;6.20;1.00;;;;;;5052506;28;20476;-77
2022/02/25 12:12:28;;;;;;;1.57;0.70;;;6.40;1.00;;;;;;5052875;28;20425;-77
2022/02/25 12:15:02;;;;;;;1.53;0.70;;;6.40;1.00;;;;;;5053344;28;20444;-76
2022/02/25 12:17:45;;;;;;;1.67;1.03;;;6.40;1.00;;;;;;5052626;28;20530;-77
2022/02/25 12:20:29;;;;;;;11.27;1.63;;;6.50;1.00;;;;;;5047723;28;20421;-77
2022/02/25 12:23:01;;;;;;;6.53;1.40;;;6.60;1.00;;;;;;5048835;28;20414;-76
2022/02/25 12:25:42;;;;;;;4.20;1.90;;;6.50;1.00;;;;;;5052574;28;20397;-77
2022/02/25 12:28:27;;;;;;;4.63;1.50;;;6.70;1.00;;;;;;5050350;28;20441;-77
2022/02/25 12:31:02;;;;;;;13.27;1.33;;;6.90;1.00;;;;;;5052249;28;20417;-76
2022/02/25 12:33:44;;;;;;;5.57;1.80;;;6.90;1.00;;;;;;5050744;28;20437;-76
2022/02/25 12:36:28;;;;;;;4.57;2.10;;;6.80;1.00;;;;;;5052690;28;20418;-76
2022/02/25 12:38:58;;;;;;;4.10;1.00;;;6.80;1.00;;;;;;5051701;28;20852;-76
2022/02/25 12:41:30;;;;;;;3.17;1.43;;;6.90;1.00;;;;;;5051887;28;20430;-77
2022/02/25 12:44:02;;;;;;;2.70;1.10;;;6.90;1.00;;;;;;5046517;28;20750;-77
2022/02/25 12:46:29;;;;;;;2.97;1.47;;;7.00;1.00;;;;;;5052275;28;20438;-77
2022/02/25 12:48:55;;;;;;;4.47;2.00;;;7.00;1.00;;;;;;5051224;28;20430;-76
2022/02/25 12:51:23;;;;;;;1.70;1.13;;;7.10;1.00;;;;;;5052692;28;20516;-76
2022/02/25 12:53:54;;;;;;;5.53;1.13;;;7.10;1.00;;;;;;5048498;28;20471;-76
2022/02/25 12:56:25;;;;;;;2.50;1.40;;;7.20;1.00;;;;;;5052059;28;20951;-76
2022/02/25 12:58:53;;;;;;;6.13;1.97;;;7.30;1.00;;;;;;5050333;28;20508;-76
2022/02/25 13:01:24;;;;;;;4.10;1.37;;;7.30;1.00;;;;;;5049892;28;20437;-76
2022/02/25 13:04:06;;;;;;;6.57;1.53;;;7.40;1.00;;;;;;5052368;28;20403;-76
2022/02/25 13:06:36;;;;;;;3.27;1.67;;;7.40;1.00;;;;;;5051758;28;20779;-78
2022/02/25 13:09:05;;;;;;;2.83;1.53;;;7.50;1.00;;;;;;5052485;28;20421;-78
2022/02/25 13:11:31;;;;;;;7.20;1.30;;;7.70;1.00;;;;;;5052527;28;20395;-78
2022/02/25 13:14:12;;;;;;;6.27;1.20;;;7.80;1.00;;;;;;5052447;28;20425;-78
2022/02/25 13:16:38;;;;;;;5.80;1.30;;;7.90;1.00;;;;;;5055220;28;20568;-78
2022/02/25 13:19:19;;;;;;;2.53;1.20;;;8.00;1.00;;;;;;5056495;28;20533;-78
2022/02/25 13:21:45;;;;;;;3.00;1.10;;;;;;;;;;5056559;28;20474;-78
2022/02/25 13:24:11;;;;;;;4.33;1.13;;;;;;;;;;5056566;28;20533;-77
2022/02/25 13:26:38;;;;;;;8.60;1.20;;;;;;;;;;5055992;28;20409;-77
2022/02/25 13:29:07;;;;;;;1.07;0.80;;;8.50;1.00;;;;;;5056139;28;20925;-77
2022/02/25 13:31:33;;;;;;;2.83;1.10;;;;;;;;;;5055013;28;20898;-76
2022/02/25 13:33:58;;;;;;;7.13;1.60;;;8.60;1.00;;;;;;5056200;28;20397;-76
2022/02/25 13:36:24;;;;;;;3.63;1.07;;;8.60;1.00;;;;;;5055896;28;20425;-76
2022/02/25 13:38:59;;;;;;;5.17;1.20;;;8.40;1.00;;;;;;5056135;28;20199;-78
2022/02/25 13:41:32;;;;;;;5.13;1.30;;;8.40;1.00;;;;;;5055924;28;20174;-79